createdAt,value
2018-12-09T00:02:05.966Z,0.30
2018-12-09T00:04:32.591Z,1.07
2018-12-09T00:06:59.227Z,1.57
2018-12-09T00:09:25.876Z,0.10
2018-12-09T00:11:52.816Z,0.40
2018-12-09T00:14:19.455Z,0.10
2018-12-09T00:16:46.088Z,0.10
2018-12-09T00:19:12.828Z,0.20
2018-12-09T00:21:39.584Z,0.20
2018-12-09T00:24:05.949Z,0.10
2018-12-09T00:26:32.603Z,0.60
2018-12-09T00:28:59.226Z,2.63
2018-12-09T00:31:25.507Z,0.10
2018-12-09T00:33:52.203Z,0.47
2018-12-09T00:36:18.857Z,0.40
2018-12-09T00:38:45.491Z,0.20
2018-12-09T00:41:12.128Z,0.20
2018-12-09T00:43:38.764Z,1.33
2018-12-09T00:46:05.071Z,0.20
2018-12-09T00:48:31.343Z,0.20
2018-12-09T00:50:57.672Z,0.30
2018-12-09T00:53:24.532Z,0.77
2018-12-09T00:55:51.185Z,0.40
2018-12-09T00:58:17.826Z,0.83
2018-12-09T01:00:44.471Z,0.50
2018-12-09T01:03:10.828Z,0.60
2018-12-09T01:05:37.132Z,0.70
2018-12-09T01:08:03.441Z,0.20
2018-12-09T01:10:30.105Z,0.60
2018-12-09T01:12:56.409Z,2.83
2018-12-09T01:15:23.040Z,2.30
2018-12-09T01:17:49.673Z,1.60
2018-12-09T01:20:16.144Z,0.40
2018-12-09T01:22:42.780Z,0.63
2018-12-09T01:25:09.455Z,0.30
2018-12-09T01:27:36.222Z,0.10
2018-12-09T01:30:03.363Z,1.47
2018-12-09T01:32:29.670Z,0.30
2018-12-09T01:34:56.327Z,0.30
2018-12-09T01:37:22.956Z,0.50
2018-12-09T01:39:49.702Z,0.50
2018-12-09T01:42:16.344Z,0.93
2018-12-09T01:44:42.983Z,0.30
2018-12-09T01:47:09.623Z,1.67
2018-12-09T01:49:35.922Z,0.57
2018-12-09T01:52:02.541Z,0.80
2018-12-09T01:54:28.860Z,1.63
2018-12-09T01:56:55.179Z,0.60
2018-12-09T01:59:21.797Z,0.87
2018-12-09T02:01:48.440Z,1.60
2018-12-09T02:04:16.019Z,1.37
2018-12-09T02:06:42.341Z,3.63
2018-12-09T02:09:09.100Z,2.07
2018-12-09T02:11:35.951Z,2.27
2018-12-09T02:14:02.858Z,1.70
2018-12-09T02:16:30.037Z,0.50
2018-12-09T02:18:58.675Z,1.63
2018-12-09T02:21:24.968Z,2.20
2018-12-09T02:23:51.283Z,5.03
2018-12-09T02:26:17.899Z,2.53
2018-12-09T02:28:44.419Z,1.83
2018-12-09T02:31:11.058Z,3.67
2018-12-09T02:33:37.680Z,2.40
2018-12-09T02:36:03.981Z,3.03
2018-12-09T02:38:30.510Z,4.00
2018-12-09T02:40:56.844Z,1.20
2018-12-09T02:43:23.482Z,1.27
2018-12-09T02:45:49.786Z,0.97
2018-12-09T02:48:16.489Z,1.43
2018-12-09T02:50:43.297Z,1.60
2018-12-09T02:53:09.947Z,1.30
2018-12-09T02:55:36.605Z,0.40
2018-12-09T02:58:02.933Z,1.30
2018-12-09T03:00:29.585Z,1.27
2018-12-09T03:02:56.230Z,0.97
2018-12-09T03:05:22.542Z,1.07
2018-12-09T03:07:48.823Z,0.30
2018-12-09T03:10:15.692Z,1.13
2018-12-09T03:12:42.362Z,1.70
2018-12-09T03:15:08.793Z,1.27
2018-12-09T03:17:35.096Z,2.17
2018-12-09T03:20:02.192Z,1.27
2018-12-09T03:22:28.490Z,0.87
2018-12-09T03:24:54.793Z,1.63
2018-12-09T03:27:21.452Z,1.23
2018-12-09T03:29:48.073Z,0.97
2018-12-09T03:32:15.025Z,3.50
2018-12-09T03:34:41.820Z,2.53
2018-12-09T03:37:08.461Z,2.50
2018-12-09T03:39:35.105Z,2.00
2018-12-09T03:42:01.757Z,1.30
2018-12-09T03:44:28.396Z,2.80
2018-12-09T03:46:55.016Z,1.33
2018-12-09T03:49:21.316Z,4.07
2018-12-09T03:51:47.582Z,1.33
2018-12-09T03:54:14.225Z,1.50
2018-12-09T03:56:41.109Z,2.57
2018-12-09T03:59:07.960Z,4.03
2018-12-09T04:01:34.575Z,3.17
2018-12-09T04:04:01.208Z,2.03
2018-12-09T04:06:27.514Z,2.30
2018-12-09T04:08:53.806Z,3.00
2018-12-09T04:11:20.112Z,3.93
2018-12-09T04:13:46.773Z,3.83
2018-12-09T04:16:13.232Z,2.37
2018-12-09T04:18:39.889Z,3.40
2018-12-09T04:21:06.515Z,2.83
2018-12-09T04:23:33.148Z,3.80
2018-12-09T04:26:02.169Z,3.03
2018-12-09T04:28:28.797Z,3.57
2018-12-09T04:30:55.448Z,2.00
2018-12-09T04:33:21.729Z,3.40
2018-12-09T04:35:48.352Z,2.43
2018-12-09T04:38:15.430Z,1.97
2018-12-09T04:40:42.084Z,3.10
2018-12-09T04:43:08.722Z,1.67
2018-12-09T04:45:35.005Z,1.27
2018-12-09T04:48:01.637Z,1.53
2018-12-09T04:50:28.308Z,1.50
2018-12-09T04:52:54.603Z,2.83
2018-12-09T04:55:20.898Z,2.30
2018-12-09T04:57:47.549Z,1.57
2018-12-09T05:00:20.307Z,0.90
2018-12-09T05:02:46.948Z,2.07
2018-12-09T05:05:13.264Z,0.63
2018-12-09T05:07:39.569Z,1.17
2018-12-09T05:10:06.357Z,1.13
2018-12-09T05:12:32.771Z,1.80
2018-12-09T05:14:59.064Z,3.67
2018-12-09T05:17:26.011Z,0.87
2018-12-09T05:19:52.625Z,1.07
2018-12-09T05:22:19.332Z,1.63
2018-12-09T05:24:45.968Z,3.03
2018-12-09T05:27:12.636Z,1.20
2018-12-09T05:29:38.947Z,1.90
2018-12-09T05:32:05.268Z,3.87
2018-12-09T05:34:31.564Z,4.30
2018-12-09T05:36:58.205Z,5.00
2018-12-09T05:39:24.840Z,4.33
2018-12-09T05:41:51.477Z,3.80
2018-12-09T05:44:18.442Z,4.57
2018-12-09T05:46:51.887Z,5.53
2018-12-09T05:49:18.524Z,6.63
2018-12-09T05:51:45.143Z,6.67
2018-12-09T05:54:11.428Z,4.23
2018-12-09T05:56:38.029Z,1.63
2018-12-09T05:59:04.313Z,5.97
2018-12-09T06:01:30.622Z,5.13
2018-12-09T06:03:57.292Z,2.67
2018-12-09T06:06:23.923Z,1.00
2018-12-09T06:08:50.568Z,4.13
2018-12-09T06:11:16.888Z,7.43
2018-12-09T06:13:43.525Z,3.70
2018-12-09T06:16:10.172Z,2.73
2018-12-09T06:18:36.464Z,3.73
2018-12-09T06:21:03.044Z,2.23
2018-12-09T06:23:29.656Z,7.07
2018-12-09T06:25:56.277Z,5.30
2018-12-09T06:28:22.916Z,6.60
2018-12-09T06:30:49.560Z,3.97
2018-12-09T06:33:15.892Z,4.77
2018-12-09T06:35:42.197Z,3.20
2018-12-09T06:38:08.828Z,6.33
2018-12-09T06:40:35.257Z,3.07
2018-12-09T06:43:01.922Z,4.43
2018-12-09T06:45:28.580Z,2.20
2018-12-09T06:47:55.197Z,5.70
2018-12-09T06:50:21.857Z,5.17
2018-12-09T06:52:48.133Z,5.17
2018-12-09T06:55:14.779Z,2.50
2018-12-09T06:57:41.412Z,3.37
2018-12-09T07:00:08.564Z,3.60
2018-12-09T07:02:35.211Z,2.87
2018-12-09T07:05:02.143Z,3.40
2018-12-09T07:07:28.599Z,1.93
2018-12-09T07:09:55.009Z,3.53
2018-12-09T07:12:21.636Z,4.43
2018-12-09T07:14:48.276Z,1.33
2018-12-09T07:17:14.984Z,1.97
2018-12-09T07:19:42.032Z,1.20
2018-12-09T07:22:08.691Z,0.50
2018-12-09T07:24:34.990Z,2.70
2018-12-09T07:27:01.628Z,3.00
2018-12-09T07:29:28.194Z,3.63
2018-12-09T07:31:54.843Z,3.33
2018-12-09T07:34:21.405Z,3.47
2018-12-09T07:36:48.048Z,3.43
2018-12-09T07:39:14.324Z,2.20
2018-12-09T07:41:41.020Z,4.07
2018-12-09T07:44:07.643Z,3.90
2018-12-09T07:46:33.984Z,3.33
2018-12-09T07:49:00.641Z,2.97
2018-12-09T07:51:26.948Z,2.90
2018-12-09T07:53:53.581Z,6.77
2018-12-09T07:56:19.882Z,4.03
2018-12-09T07:58:46.507Z,3.70
2018-12-09T08:01:13.184Z,4.77
2018-12-09T08:03:39.888Z,6.37
2018-12-09T08:06:06.180Z,8.57
2018-12-09T08:08:32.487Z,3.73
2018-12-09T08:10:59.127Z,4.80
2018-12-09T08:13:25.401Z,2.80
2018-12-09T08:15:52.074Z,3.20
2018-12-09T08:18:18.716Z,8.03
2018-12-09T08:20:45.376Z,4.30
2018-12-09T08:23:12.020Z,4.20
2018-12-09T08:25:38.348Z,6.87
2018-12-09T08:28:04.977Z,2.77
2018-12-09T08:30:31.873Z,3.93
2018-12-09T08:32:58.528Z,6.90
2018-12-09T08:35:25.184Z,5.57
2018-12-09T08:37:51.815Z,5.10
2018-12-09T08:40:18.519Z,5.50
2018-12-09T08:42:45.446Z,4.37
2018-12-09T08:45:12.101Z,4.10
2018-12-09T08:47:38.790Z,4.47
2018-12-09T08:50:05.555Z,5.10
2018-12-09T08:52:32.312Z,5.03
2018-12-09T08:54:58.968Z,2.83
2018-12-09T08:57:25.634Z,6.57
2018-12-09T08:59:51.922Z,6.57
2018-12-09T09:02:18.249Z,5.40
2018-12-09T09:04:44.793Z,4.30
2018-12-09T09:07:11.466Z,2.67
2018-12-09T09:09:38.110Z,4.50
2018-12-09T09:12:04.760Z,3.17
2018-12-09T09:14:31.379Z,3.20
2018-12-09T09:16:58.111Z,4.37
2018-12-09T09:19:24.737Z,5.07
2018-12-09T09:21:51.415Z,5.60
2018-12-09T09:24:17.713Z,4.87
2018-12-09T09:26:44.420Z,3.33
2018-12-09T09:29:11.063Z,4.80
2018-12-09T09:31:37.428Z,4.03
2018-12-09T09:34:04.060Z,5.93
2018-12-09T09:36:30.708Z,5.90
2018-12-09T09:38:57.349Z,3.77
2018-12-09T09:41:23.998Z,6.50
2018-12-09T09:43:50.701Z,5.33
2018-12-09T09:46:17.356Z,4.50
2018-12-09T09:48:44.020Z,7.07
2018-12-09T09:51:10.454Z,4.63
2018-12-09T09:53:36.747Z,4.07
2018-12-09T09:56:03.155Z,7.57
2018-12-09T09:58:29.828Z,7.53
2018-12-09T10:00:56.528Z,10.13
2018-12-09T10:03:26.036Z,4.07
2018-12-09T10:05:51.914Z,7.87
2018-12-09T10:08:18.598Z,6.90
2018-12-09T10:10:45.236Z,2.40
2018-12-09T10:13:11.908Z,3.20
2018-12-09T10:15:38.571Z,4.87
2018-12-09T10:18:05.238Z,4.97
2018-12-09T10:20:31.901Z,5.87
2018-12-09T10:22:58.532Z,5.13
2018-12-09T10:25:25.164Z,4.60
2018-12-09T10:27:51.812Z,6.83
2018-12-09T10:30:18.446Z,3.93
2018-12-09T10:32:44.729Z,3.90
2018-12-09T10:35:11.015Z,7.23
2018-12-09T10:37:37.665Z,7.83
2018-12-09T10:40:04.504Z,12.50
2018-12-09T10:42:31.168Z,6.40
2018-12-09T10:44:57.817Z,7.07
2018-12-09T10:47:24.444Z,4.53
2018-12-09T10:49:50.752Z,7.50
2018-12-09T10:52:17.383Z,4.23
2018-12-09T10:54:44.057Z,3.53
2018-12-09T10:57:10.798Z,5.13
2018-12-09T10:59:37.560Z,2.30
2018-12-09T11:02:10.069Z,4.57
2018-12-09T11:04:36.704Z,6.57
2018-12-09T11:07:03.316Z,4.03
2018-12-09T11:09:29.947Z,6.03
2018-12-09T11:11:56.642Z,5.50
2018-12-09T11:14:23.366Z,4.83
2018-12-09T11:16:50.005Z,4.50
2018-12-09T11:19:16.642Z,2.30
2018-12-09T11:21:43.352Z,3.07
2018-12-09T11:24:10.077Z,2.13
2018-12-09T11:26:36.807Z,2.47
2018-12-09T11:29:03.458Z,3.20
2018-12-09T11:31:30.853Z,3.53
2018-12-09T11:33:57.506Z,5.13
2018-12-09T11:36:24.192Z,2.00
2018-12-09T11:38:50.830Z,4.60
2018-12-09T11:48:41.321Z,2.73
2018-12-09T11:51:07.692Z,4.33
2018-12-09T11:53:34.027Z,3.20
2018-12-09T11:56:00.691Z,2.37
2018-12-09T11:58:29.557Z,4.10
2018-12-09T12:00:56.224Z,3.30
2018-12-09T12:03:23.747Z,3.53
2018-12-09T12:05:50.390Z,4.00
2018-12-09T12:08:17.592Z,3.70
2018-12-09T12:10:43.909Z,3.73
2018-12-09T12:13:10.240Z,2.30
2018-12-09T12:15:37.166Z,2.87
2018-12-09T12:18:03.869Z,1.83
2018-12-09T12:20:30.632Z,2.23
2018-12-09T12:22:57.276Z,3.87
2018-12-09T12:25:24.765Z,3.27
2018-12-09T12:27:51.415Z,2.13
2018-12-09T12:30:18.065Z,2.57
2018-12-09T12:32:44.748Z,1.40
2018-12-09T12:35:11.408Z,2.60
2018-12-09T12:37:38.440Z,2.80
2018-12-09T12:40:06.246Z,1.90
2018-12-09T12:42:32.557Z,2.17
2018-12-09T12:44:59.997Z,1.70
2018-12-09T12:47:28.360Z,3.03
2018-12-09T12:49:55.006Z,5.10
2018-12-09T12:52:28.608Z,4.20
2018-12-09T12:54:55.263Z,1.43
2018-12-09T12:57:21.947Z,0.83
2018-12-09T12:59:48.238Z,2.13
2018-12-09T13:02:15.794Z,2.30
2018-12-09T13:04:43.458Z,2.13
2018-12-09T13:07:10.149Z,1.13
2018-12-09T13:09:43.824Z,1.20
2018-12-09T13:12:10.689Z,1.57
2018-12-09T13:14:37.781Z,1.50
2018-12-09T13:17:04.791Z,0.90
2018-12-09T13:19:31.517Z,1.47
2018-12-09T13:21:58.196Z,1.13
2018-12-09T13:24:24.912Z,1.77
2018-12-09T13:26:51.660Z,0.93
2018-12-09T13:29:18.317Z,0.33
2018-12-09T13:31:44.983Z,1.37
2018-12-09T13:34:12.180Z,0.67
2018-12-09T13:36:39.544Z,0.30
2018-12-09T13:39:07.680Z,0.50
2018-12-09T13:41:35.152Z,0.30
2018-12-09T13:44:01.492Z,1.17
2018-12-09T13:46:27.841Z,0.80
2018-12-09T13:48:54.619Z,1.23
2018-12-09T13:51:22.180Z,2.00
2018-12-09T13:53:48.840Z,1.03
2018-12-09T13:56:15.123Z,0.57
2018-12-09T13:58:41.421Z,0.50
2018-12-09T14:01:08.798Z,1.07
2018-12-09T14:03:35.056Z,2.50
2018-12-09T14:06:01.725Z,0.77
2018-12-09T14:08:28.103Z,0.30
2018-12-09T14:10:54.404Z,0.60
2018-12-09T14:13:21.062Z,1.02
2018-12-09T14:15:47.699Z,0.90
2018-12-09T14:18:14.109Z,0.93
2018-12-09T14:20:40.416Z,1.70
2018-12-09T14:23:07.254Z,0.63
2018-12-09T14:25:33.897Z,1.27
2018-12-09T14:28:00.580Z,3.73
2018-12-09T14:30:26.900Z,0.70
2018-12-09T14:32:53.569Z,1.33
2018-12-09T14:35:20.224Z,0.87
2018-12-09T14:37:46.872Z,1.03
2018-12-09T14:40:13.278Z,1.20
2018-12-09T14:42:39.949Z,1.53
2018-12-09T14:45:06.703Z,1.12
2018-12-09T14:47:33.332Z,0.80
2018-12-09T14:50:00.001Z,1.82
2018-12-09T14:52:27.578Z,0.67
2018-12-09T14:54:54.296Z,2.53
2018-12-09T14:57:20.949Z,2.00
2018-12-09T14:59:47.818Z,2.27
2018-12-09T15:02:14.468Z,2.77
2018-12-09T15:04:41.134Z,2.40
2018-12-09T15:07:07.822Z,3.23
2018-12-09T15:09:34.249Z,1.83
2018-12-09T15:12:00.544Z,1.12
2018-12-09T15:14:27.631Z,1.50
2018-12-09T15:16:53.940Z,1.30
2018-12-09T15:19:20.882Z,1.30
2018-12-09T15:21:48.278Z,1.20
2018-12-09T15:24:14.613Z,0.80
2018-12-09T15:26:41.269Z,0.93
2018-12-09T15:29:07.912Z,2.00
2018-12-09T15:31:34.557Z,2.00
2018-12-09T15:34:00.991Z,0.93
2018-12-09T15:36:27.773Z,1.03
2018-12-09T15:38:54.419Z,0.87
2018-12-09T15:41:21.133Z,9.13
2018-12-09T15:43:47.788Z,6.77
2018-12-09T15:46:21.385Z,4.10
2018-12-09T15:48:47.684Z,1.70
2018-12-09T15:51:14.621Z,1.00
2018-12-09T15:53:41.257Z,4.20
2018-12-09T15:56:07.908Z,5.03
2018-12-09T15:58:34.202Z,1.07
2018-12-09T16:01:00.857Z,1.40
2018-12-09T16:03:27.508Z,2.57
2018-12-09T16:05:54.165Z,1.70
2018-12-09T16:08:20.843Z,0.70
2018-12-09T16:10:47.467Z,1.03
2018-12-09T16:13:14.767Z,0.80
2018-12-09T16:15:41.083Z,0.40
2018-12-09T16:18:07.644Z,0.43
2018-12-09T16:20:34.937Z,0.50
2018-12-09T16:23:01.575Z,0.90
2018-12-09T16:25:28.265Z,1.00
2018-12-09T16:27:54.906Z,1.23
2018-12-09T16:30:21.367Z,0.70
2018-12-09T16:32:47.632Z,0.50
2018-12-09T16:35:14.272Z,0.87
2018-12-09T16:37:40.906Z,0.20
2018-12-09T16:40:07.532Z,0.20
2018-12-09T16:42:34.184Z,0.80
2018-12-09T16:45:01.800Z,0.70
2018-12-09T16:47:28.501Z,0.63
2018-12-09T16:49:55.972Z,0.70
2018-12-09T16:52:22.845Z,0.80
2018-12-09T16:54:49.514Z,0.90
2018-12-09T16:57:16.176Z,0.87
2018-12-09T16:59:42.821Z,0.60
2018-12-09T17:02:09.477Z,0.80
2018-12-09T17:04:35.767Z,0.83
2018-12-09T17:07:02.049Z,0.50
2018-12-09T17:09:28.717Z,1.60
2018-12-09T17:11:55.383Z,1.57
2018-12-09T17:14:22.055Z,1.33
2018-12-09T17:16:48.716Z,1.00
2018-12-09T17:19:15.360Z,0.50
2018-12-09T17:21:42.012Z,1.03
2018-12-09T17:24:08.680Z,1.43
2018-12-09T17:26:35.313Z,1.17
2018-12-09T17:29:05.527Z,1.23
2018-12-09T17:31:30.764Z,0.80
2018-12-09T17:33:57.037Z,0.87
2018-12-09T17:36:23.744Z,0.63
2018-12-09T17:38:50.425Z,2.50
2018-12-09T17:41:24.754Z,0.40
2018-12-09T17:43:45.752Z,0.80
2018-12-09T17:46:12.768Z,0.97
2018-12-09T17:48:39.427Z,1.13
2018-12-09T17:51:06.094Z,1.00
2018-12-09T17:53:32.845Z,0.93
2018-12-09T17:55:59.160Z,1.30
2018-12-09T17:58:26.072Z,0.97
2018-12-09T18:00:52.804Z,1.60
2018-12-09T18:03:19.614Z,1.20
2018-12-09T18:05:53.184Z,1.80
2018-12-09T18:08:20.596Z,55.13
2018-12-09T18:10:47.318Z,41.50
2018-12-09T18:13:14.032Z,68.73
2018-12-09T18:15:40.313Z,81.47
2018-12-09T18:18:06.957Z,61.03
2018-12-09T18:20:33.604Z,39.63
2018-12-09T18:22:59.879Z,14.90
2018-12-09T18:25:26.527Z,9.03
2018-12-09T18:27:53.181Z,6.43
2018-12-09T18:30:20.126Z,6.37
2018-12-09T18:32:47.682Z,4.67
2018-12-09T18:35:14.327Z,2.77
2018-12-09T18:37:40.982Z,2.07
2018-12-09T18:40:07.392Z,1.67
2018-12-09T18:42:34.055Z,2.90
2018-12-09T18:45:00.330Z,2.43
2018-12-09T18:47:26.964Z,2.10
2018-12-09T18:49:53.865Z,1.98
2018-12-09T18:52:20.529Z,0.97
2018-12-09T18:54:46.818Z,0.50
2018-12-09T18:57:13.448Z,1.20
2018-12-09T18:59:39.762Z,1.00
2018-12-09T19:02:06.399Z,0.73
2018-12-09T19:04:32.682Z,1.00
2018-12-09T19:06:59.343Z,0.73
2018-12-09T19:09:26.144Z,1.87
2018-12-09T19:11:52.784Z,1.30
2018-12-09T19:14:19.482Z,1.07
2018-12-09T19:16:46.109Z,0.67
2018-12-09T19:19:13.116Z,1.87
2018-12-09T19:21:39.790Z,3.10
2018-12-09T19:24:06.089Z,1.87
2018-12-09T19:26:32.734Z,0.87
2018-12-09T19:28:59.360Z,0.80
2018-12-09T19:31:25.656Z,0.87
2018-12-09T19:33:52.361Z,1.03
2018-12-09T19:36:19.002Z,0.70
2018-12-09T19:38:45.701Z,0.47
2018-12-09T19:41:12.317Z,2.10
2018-12-09T19:43:38.969Z,1.17
2018-12-09T19:46:05.852Z,1.90
2018-12-09T19:48:32.262Z,2.53
2018-12-09T19:50:59.285Z,1.20
2018-12-09T19:53:25.588Z,2.27
2018-12-09T19:55:52.220Z,1.53
2018-12-09T19:58:18.474Z,1.97
2018-12-09T20:00:45.248Z,1.60
2018-12-09T20:03:11.891Z,6.20
2018-12-09T20:05:38.537Z,2.23
2018-12-09T20:08:04.979Z,2.07
2018-12-09T20:10:31.618Z,2.20
2018-12-09T20:12:58.264Z,1.33
2018-12-09T20:15:25.143Z,1.87
2018-12-09T20:17:51.780Z,1.07
2018-12-09T20:20:18.412Z,1.20
2018-12-09T20:22:46.096Z,2.17
2018-12-09T20:25:13.205Z,1.33
2018-12-09T20:27:39.526Z,1.43
2018-12-09T20:30:07.503Z,0.70
2018-12-09T20:32:35.269Z,1.00
2018-12-09T20:35:02.492Z,1.53
2018-12-09T20:37:29.169Z,0.70
2018-12-09T20:39:56.477Z,1.43
2018-12-09T20:42:23.054Z,1.43
2018-12-09T20:44:49.386Z,1.10
2018-12-09T20:47:16.053Z,1.97
2018-12-09T20:49:42.728Z,2.20
2018-12-09T20:52:10.666Z,2.50
2018-12-09T20:54:36.960Z,2.00
2018-12-09T20:57:03.659Z,1.83
2018-12-09T20:59:29.961Z,0.93
2018-12-09T21:01:57.036Z,1.17
2018-12-09T21:04:24.753Z,2.03
2018-12-09T21:06:51.503Z,1.63
2018-12-09T21:09:18.159Z,1.00
2018-12-09T21:11:44.465Z,1.37
2018-12-09T21:14:10.776Z,1.43
2018-12-09T21:16:37.414Z,0.90
2018-12-09T21:19:03.755Z,4.23
2018-12-09T21:21:30.043Z,0.87
2018-12-09T21:23:56.699Z,2.47
2018-12-09T21:26:23.469Z,2.27
2018-12-09T21:28:50.113Z,1.00
2018-12-09T21:31:16.921Z,2.67
2018-12-09T21:33:43.185Z,1.07
2018-12-09T21:36:09.889Z,1.60
2018-12-09T21:38:36.772Z,2.20
2018-12-09T21:41:10.280Z,1.60
2018-12-09T21:43:36.900Z,1.47
2018-12-09T21:46:03.196Z,1.23
2018-12-09T21:48:29.817Z,2.03
2018-12-09T21:50:56.459Z,1.40
2018-12-09T21:53:23.764Z,1.50
2018-12-09T21:55:50.680Z,1.37
2018-12-09T21:58:16.941Z,1.03
2018-12-09T22:00:43.612Z,1.83
2018-12-09T22:03:10.301Z,2.20
2018-12-09T22:05:36.940Z,1.37
2018-12-09T22:08:10.220Z,0.90
2018-12-09T22:10:36.940Z,1.30
2018-12-09T22:13:03.632Z,2.37
2018-12-09T22:15:30.344Z,2.63
2018-12-09T22:17:57.690Z,2.40
2018-12-09T22:20:23.993Z,1.90
2018-12-09T22:22:50.527Z,1.47
2018-12-09T22:25:16.833Z,1.80
2018-12-09T22:27:43.474Z,2.30
2018-12-09T22:30:10.132Z,1.30
2018-12-09T22:32:36.769Z,1.20
2018-12-09T22:35:03.817Z,1.77
2018-12-09T22:37:31.296Z,1.27
2018-12-09T22:39:57.952Z,1.60
2018-12-09T22:42:24.247Z,1.83
2018-12-09T22:44:50.883Z,1.13
2018-12-09T22:47:17.524Z,1.03
2018-12-09T22:49:44.164Z,1.03
2018-12-09T22:52:10.806Z,1.43
2018-12-09T22:54:37.458Z,1.63
2018-12-09T22:57:03.740Z,1.80
2018-12-09T22:59:37.223Z,1.77
2018-12-09T23:02:09.946Z,0.80
2018-12-09T23:04:36.247Z,1.53
2018-12-09T23:07:08.977Z,0.90
2018-12-09T23:09:35.642Z,2.30
2018-12-09T23:12:02.329Z,1.77
2018-12-09T23:14:29.048Z,0.83
2018-12-09T23:16:55.716Z,1.87
2018-12-09T23:19:22.376Z,0.80
2018-12-09T23:21:48.860Z,3.30
2018-12-09T23:24:15.500Z,0.80
2018-12-09T23:26:42.169Z,1.43
2018-12-09T23:29:08.812Z,1.80
2018-12-09T23:31:35.453Z,2.60
2018-12-09T23:34:02.501Z,0.70
2018-12-09T23:36:29.489Z,0.70
2018-12-09T23:38:55.781Z,0.90
2018-12-09T23:41:22.413Z,1.13
2018-12-09T23:43:49.053Z,1.00
2018-12-09T23:46:15.707Z,0.60
2018-12-09T23:48:41.981Z,1.93
2018-12-09T23:51:08.272Z,1.70
2018-12-09T23:53:34.575Z,3.00
2018-12-09T23:56:00.884Z,0.60
2018-12-09T23:58:27.513Z,1.07
